Cowan, Tennessee
Current Conditions -  °F | °C
As of 11:35 PM on Sunday 21 Dec 2014 (Local Time) from KBGF Reporting Station
Overcast Overcast  
Wind Chill: 42°   Ceiling: 1400
Heat Index: 46°   Visibility: 10mi
Dew Point: 43°   Wind: 8mph
Humidity: 87%   Direction: 160°SSE
Pressure: 30.03"   Gusts: NA
Location:  35.16°N, 86.01°W
Report Text: KBGF 220535Z AUTO 16007KT 10SM OVC014 08/06 A3003 RMK
Loading
Personal Weather Stations






























Interactive Weather Map New forecast layout! Learn more

10-Day Weather Forecast

Advertisements
Track Severe Weather on mobile